Time;durP1;ratioP1;P1;durP2;ratioP2;P2;SDS_P1;SDS_P2;PMS_P1;PMS_P2;Temp;Humidity;BMP_temperature;BMP_pressure;BME280_temperature;BME280_humidity;BME280_pressure;Samples;Min_cycle;Max_cycle;Signal;HPM_P1;HPM_P2
2023/03/15 00:01:29;;;;;;;34.92;15.27;;;;;;;;;;4997563;28;20345;-45
2023/03/15 00:03:56;;;;;;;47.08;20.55;;;;;;;;;;4997246;28;20298;-45
2023/03/15 00:06:24;;;;;;;41.05;17.23;;;;;;;;;;4997444;28;20206;-45
2023/03/15 00:08:51;;;;;;;39.47;16.77;;;;;;;;;;4997434;28;20198;-44
2023/03/15 00:11:18;;;;;;;57.10;28.60;;;;;;;;;;4997632;28;20202;-44
2023/03/15 00:13:46;;;;;;;43.90;23.55;;;;;;;;;;4997445;28;20206;-46
2023/03/15 00:16:16;;;;;;;37.55;17.85;;;;;;;;;;4997647;28;20205;-44
2023/03/15 00:18:46;;;;;;;30.63;15.93;;;;;;;;;;4997108;28;20213;-46
2023/03/15 00:21:14;;;;;;;36.35;17.75;;;;;;;;;;4997910;28;20206;-44
2023/03/15 00:23:41;;;;;;;29.42;15.40;;;;;;;;;;4997268;28;20245;-45
2023/03/15 00:26:08;;;;;;;37.58;16.77;;;;;;;;;;4997280;28;20213;-48
2023/03/15 00:28:36;;;;;;;37.95;17.40;;;;;;;;;;4996994;28;20206;-45
2023/03/15 00:31:11;;;;;;;27.08;14.23;;;;;;;;;;4997159;28;20205;-45
2023/03/15 00:33:40;;;;;;;25.30;13.70;;;;;;;;;;4996932;28;20252;-45
2023/03/15 00:36:08;;;;;;;35.10;16.77;;;;;;;;;;4996751;28;20206;-45
2023/03/15 00:38:37;;;;;;;34.00;15.55;;;;;;;;;;4997028;28;20202;-45
2023/03/15 00:41:10;;;;;;;67.82;31.00;;;;;;;;;;4995907;28;20209;-45
2023/03/15 00:43:37;;;;;;;57.90;28.83;;;;;;;;;;4995638;28;20572;-45
2023/03/15 00:46:05;;;;;;;41.97;21.75;;;;;;;;;;4995902;28;20293;-45
2023/03/15 00:48:36;;;;;;;23.52;14.63;;;;;;;;;;4997286;28;20233;-44
2023/03/15 00:51:05;;;;;;;25.52;13.82;;;;;;;;;;4995692;28;20315;-45
2023/03/15 00:53:33;;;;;;;23.10;13.85;;;;;;;;;;4996462;28;20217;-45
2023/03/15 00:56:06;;;;;;;29.33;14.45;;;;;;;;;;4996712;28;20198;-46
2023/03/15 00:58:34;;;;;;;30.10;15.45;;;;;;;;;;4995964;28;20191;-47
2023/03/15 01:01:08;;;;;;;28.33;13.57;;;;;;;;;;4995659;28;20208;-45
2023/03/15 01:03:37;;;;;;;23.60;13.25;;;;;;;;;;4996525;28;20233;-46
2023/03/15 01:06:06;;;;;;;40.72;19.85;;;;;;;;;;4996145;28;20202;-44
2023/03/15 01:08:34;;;;;;;23.75;12.45;;;;;;;;;;4995493;28;20217;-45
2023/03/15 01:11:03;;;;;;;25.50;12.52;;;;;;;;;;4996250;28;20210;-45
2023/03/15 01:13:31;;;;;;;70.32;29.00;;;;;;;;;;4995671;28;20279;-45
2023/03/15 01:15:59;;;;;;;48.30;24.10;;;;;;;;;;4996017;28;20202;-45
2023/03/15 01:18:26;;;;;;;31.90;16.10;;;;;;;;;;4995610;28;20202;-45
2023/03/15 01:20:53;;;;;;;25.67;13.02;;;;;;;;;;4996059;28;20205;-44
2023/03/15 01:23:21;;;;;;;23.95;12.88;;;;;;;;;;4995162;28;20209;-45
2023/03/15 01:25:48;;;;;;;38.75;15.98;;;;;;;;;;4995262;28;20202;-44
2023/03/15 01:28:15;;;;;;;29.45;13.30;;;;;;;;;;4996005;28;20213;-45
2023/03/15 01:30:50;;;;;;;30.90;15.25;;;;;;;;;;4995702;28;20206;-44
2023/03/15 01:33:18;;;;;;;21.58;12.55;;;;;;;;;;4994863;28;20275;-45
2023/03/15 01:35:46;;;;;;;66.50;28.08;;;;;;;;;;4995848;28;20217;-46
2023/03/15 01:38:14;;;;;;;31.20;15.57;;;;;;;;;;4995007;28;20613;-45
2023/03/15 01:40:43;;;;;;;45.50;18.90;;;;;;;;;;4994767;28;20202;-45
2023/03/15 01:43:21;;;;;;;43.92;19.20;;;;;;;;;;4994794;28;20630;-46
2023/03/15 01:46:23;;;;;;;36.25;20.85;;;;;;;;;;4994831;28;20209;-45
2023/03/15 01:49:32;;;;;;;32.35;17.75;;;;;;;;;;4991070;28;20216;-45
2023/03/15 01:52:11;;;;;;;27.83;14.23;;;;;;;;;;4992660;28;20237;-44
2023/03/15 01:55:09;;;;;;;21.63;12.02;;;;;;;;;;4994400;28;20206;-44
2023/03/15 01:57:47;;;;;;;22.80;13.68;;;;;;;;;;4994963;28;20214;-45
2023/03/15 02:00:18;;;;;;;27.45;14.27;;;;;;;;;;4994532;28;20196;-44
2023/03/15 02:02:57;;;;;;;25.38;13.10;;;;;;;;;;4994497;28;20265;-45
2023/03/15 02:05:31;;;;;;;23.92;13.85;;;;;;;;;;4978785;28;20555;-45
2023/03/15 02:08:01;;;;;;;27.10;16.05;;;;;;;;;;4978805;28;20636;-44
2023/03/15 02:10:38;;;;;;;27.52;15.07;;;;;;;;;;4979258;28;20213;-45
2023/03/15 02:13:06;;;;;;;25.13;13.82;;;;;;;;;;4979006;28;20197;-45
2023/03/15 02:15:33;;;;;;;26.10;14.27;;;;;;;;;;4994414;28;20217;-45
2023/03/15 02:18:04;;;;;;;64.65;37.35;;;;;;;;;;4994576;28;20187;-44
2023/03/15 02:20:41;;;;;;;37.42;23.60;;;;;;;;;;4995200;28;20206;-45
2023/03/15 02:23:12;;;;;;;27.35;16.27;;;;;;;;;;4978790;28;20202;-44
2023/03/15 02:25:45;;;;;;;24.25;14.38;;;;;;;;;;4994373;28;20233;-45
2023/03/15 02:28:15;;;;;;;33.85;16.10;;;;;;;;;;4995966;28;20197;-45
2023/03/15 02:30:43;;;;;;;27.38;14.77;;;;;;;;;;4994450;28;20217;-45
2023/03/15 02:33:16;;;;;;;27.73;13.50;;;;;;;;;;4995156;28;20212;-44
2023/03/15 02:35:44;;;;;;;27.77;12.63;;;;;;;;;;4994457;28;20185;-45
2023/03/15 02:38:11;;;;;;;25.02;12.55;;;;;;;;;;4994124;28;20206;-44
2023/03/15 02:40:39;;;;;;;45.20;20.35;;;;;;;;;;4994923;28;20541;-45
2023/03/15 02:43:12;;;;;;;22.23;12.48;;;;;;;;;;4978246;28;20260;-45
2023/03/15 02:45:40;;;;;;;21.42;12.95;;;;;;;;;;4994314;28;20288;-45
2023/03/15 02:48:09;;;;;;;22.80;12.07;;;;;;;;;;4962538;28;20210;-45
2023/03/15 02:50:37;;;;;;;91.65;40.47;;;;;;;;;;4994840;28;20637;-47
2023/03/15 02:53:04;;;;;;;68.40;37.38;;;;;;;;;;4994107;28;20625;-46
2023/03/15 02:55:32;;;;;;;57.83;31.50;;;;;;;;;;4994181;28;20220;-45
2023/03/15 02:58:01;;;;;;;22.40;14.35;;;;;;;;;;4995311;28;20210;-45
2023/03/15 03:00:29;;;;;;;19.90;13.10;;;;;;;;;;4994471;28;20210;-45
2023/03/15 03:02:56;;;;;;;20.15;12.20;;;;;;;;;;4994842;28;20254;-44
2023/03/15 03:05:24;;;;;;;23.63;12.93;;;;;;;;;;4994800;28;20234;-45
2023/03/15 03:07:52;;;;;;;25.52;13.93;;;;;;;;;;4997845;28;20210;-45
2023/03/15 03:10:19;;;;;;;23.30;12.77;;;;;;;;;;4997686;28;20214;-44
2023/03/15 03:12:56;;;;;;;29.15;13.63;;;;;;;;;;4997852;28;20186;-45
2023/03/15 03:15:30;;;;;;;37.75;20.23;;;;;;;;;;4997766;28;20206;-44
2023/03/15 03:17:57;;;;;;;23.63;13.18;;;;;;;;;;4998398;28;20292;-44
2023/03/15 03:20:24;;;;;;;22.77;14.20;;;;;;;;;;4998409;28;20221;-45
2023/03/15 03:22:54;;;;;;;24.80;14.02;;;;;;;;;;4998367;28;20205;-44
2023/03/15 03:25:26;;;;;;;23.85;13.45;;;;;;;;;;4998243;28;20300;-45
2023/03/15 03:27:56;;;;;;;25.42;13.07;;;;;;;;;;4997412;28;20190;-45
2023/03/15 03:30:25;;;;;;;24.48;13.13;;;;;;;;;;4997361;28;20201;-45
2023/03/15 03:32:52;;;;;;;23.13;14.27;;;;;;;;;;4997120;28;20316;-44
2023/03/15 03:35:20;;;;;;;35.85;18.60;;;;;;;;;;4997104;28;20203;-48
2023/03/15 03:37:48;;;;;;;61.13;30.27;;;;;;;;;;4997162;28;20201;-45
2023/03/15 03:40:20;;;;;;;27.90;16.40;;;;;;;;;;4997201;28;20646;-46
2023/03/15 03:42:47;;;;;;;26.48;16.30;;;;;;;;;;4997919;28;20256;-45
2023/03/15 03:45:17;;;;;;;20.27;13.73;;;;;;;;;;4997005;28;20236;-44
2023/03/15 03:47:46;;;;;;;16.17;10.57;;;;;;;;;;4997487;28;20220;-44
2023/03/15 03:50:14;;;;;;;9.70;7.35;;;;;;;;;;4997067;28;20214;-45
2023/03/15 03:52:43;;;;;;;12.60;9.15;;;;;;;;;;4997332;28;20221;-45
2023/03/15 03:55:23;;;;;;;8.93;6.90;;;;;;;;;;4996865;28;20224;-46
2023/03/15 03:57:52;;;;;;;8.07;5.68;;;;;;;;;;4997025;28;20210;-45
2023/03/15 04:00:36;;;;;;;11.90;6.97;;;;;;;;;;4997337;28;20201;-44
2023/03/15 04:03:05;;;;;;;8.65;4.72;;;;;;;;;;4996571;28;20240;-45
2023/03/15 04:05:35;;;;;;;5.78;4.55;;;;;;;;;;4996362;28;20225;-44
2023/03/15 04:08:03;;;;;;;10.50;6.47;;;;;;;;;;4997357;28;20213;-45
2023/03/15 04:10:35;;;;;;;5.93;4.53;;;;;;;;;;4998126;28;20252;-44
2023/03/15 04:13:02;;;;;;;9.63;4.57;;;;;;;;;;4996382;28;20237;-44
2023/03/15 04:15:30;;;;;;;3.93;2.67;;;;;;;;;;4996516;28;20205;-45
2023/03/15 04:17:58;;;;;;;3.37;2.50;;;;;;;;;;4996150;28;20297;-44
2023/03/15 04:20:34;;;;;;;4.68;2.80;;;;;;;;;;4996346;28;20284;-44
2023/03/15 04:23:02;;;;;;;4.47;2.67;;;;;;;;;;4996674;28;20264;-44
2023/03/15 04:25:56;;;;;;;4.43;1.80;;;;;;;;;;4993038;28;20234;-44
2023/03/15 04:28:42;;;;;;;4.37;1.60;;;;;;;;;;4996737;28;20629;-45
2023/03/15 04:31:36;;;;;;;2.67;1.40;;;;;;;;;;4988711;28;20651;-45
2023/03/15 04:34:06;;;;;;;1.60;1.50;;;;;;;;;;4996741;28;20214;-45
2023/03/15 04:36:57;;;;;;;3.87;1.10;;;;;;;;;;4969152;28;20202;-45
2023/03/15 04:39:47;;;;;;;2.73;1.30;;;;;;;;;;4990444;28;20198;-47
2023/03/15 04:42:43;;;;;;;2.40;1.13;;;;;;;;;;5001377;28;20206;-46
2023/03/15 04:45:30;;;;;;;1.83;1.10;;;;;;;;;;4995738;28;20233;-46
2023/03/15 04:48:00;;;;;;;1.80;1.10;;;;;;;;;;5000854;28;20202;-45
2023/03/15 04:50:36;;;;;;;2.27;1.40;;;;;;;;;;5006537;28;20221;-45
2023/03/15 04:53:13;;;;;;;3.13;1.83;;;;;;;;;;5010457;28;20213;-46
2023/03/15 04:56:06;;;;;;;2.13;1.63;;;;;;;;;;4988251;28;20230;-48
2023/03/15 04:58:56;;;;;;;1.70;1.27;;;;;;;;;;4987530;28;20217;-45
2023/03/15 05:01:43;;;;;;;3.40;1.70;;;;;;;;;;4996157;28;20230;-47
2023/03/15 05:04:37;;;;;;;2.57;1.87;;;;;;;;;;4993776;28;20299;-46
2023/03/15 05:07:34;;;;;;;1.87;1.40;;;;;;;;;;4986501;28;20216;-44
2023/03/15 05:10:36;;;;;;;4.80;1.60;;;;;;;;;;4930841;29;20327;-44
2023/03/15 05:13:25;;;;;;;4.80;1.40;;;;;;;;;;4990856;28;20712;-44
2023/03/15 05:16:11;;;;;;;5.50;1.50;;;;;;;;;;4995023;28;20566;-44
2023/03/15 05:19:01;;;;;;;2.10;1.20;;;;;;;;;;4994355;28;20265;-45
2023/03/15 05:21:28;;;;;;;3.43;1.57;;;;;;;;;;4994651;28;20233;-43
2023/03/15 05:24:13;;;;;;;4.27;1.80;;;;;;;;;;4993815;28;20226;-44
2023/03/15 05:26:58;;;;;;;3.90;1.93;;;;;;;;;;4994162;28;20240;-43
2023/03/15 05:29:41;;;;;;;5.87;2.13;;;;;;;;;;4994652;28;20268;-46
2023/03/15 05:32:25;;;;;;;3.70;1.90;;;;;;;;;;4994583;28;20229;-43
2023/03/15 05:35:13;;;;;;;2.67;1.23;;;;;;;;;;5000618;28;20225;-45
2023/03/15 05:37:46;;;;;;;4.43;1.60;;;;;;;;;;5014338;28;20283;-46
2023/03/15 05:40:42;;;;;;;4.40;1.60;;;;;;;;;;4990996;28;20311;-45
2023/03/15 05:43:32;;;;;;;7.57;1.93;;;;;;;;;;5012236;28;20237;-45
2023/03/15 05:46:18;;;;;;;3.37;1.50;;;;;;;;;;5012533;28;20229;-50
2023/03/15 05:49:04;;;;;;;3.50;1.50;;;;;;;;;;5009626;28;20716;-45
2023/03/15 05:51:40;;;;;;;6.83;1.60;;;;;;;;;;5012600;28;20249;-45
2023/03/15 05:54:25;;;;;;;3.27;1.30;;;;;;;;;;5013700;28;20221;-44
2023/03/15 05:57:21;;;;;;;4.23;1.50;;;;;;;;;;4953753;28;20282;-45
2023/03/15 06:00:15;;;;;;;3.33;1.50;;;;;;;;;;4950203;28;20235;-43
2023/03/15 06:02:46;;;;;;;6.87;1.43;;;;;;;;;;4936613;29;20226;-46
2023/03/15 06:05:35;;;;;;;6.10;1.40;;;;;;;;;;4937451;29;20251;-42
2023/03/15 06:08:05;;;;;;;3.60;1.20;;;;;;;;;;4934289;28;20224;-42
2023/03/15 06:10:34;;;;;;;5.93;1.70;;;;;;;;;;4934725;29;20287;-42
2023/03/15 06:13:05;;;;;;;4.63;1.30;;;;;;;;;;4932538;29;20255;-45
2023/03/15 06:15:33;;;;;;;2.73;1.60;;;;;;;;;;4938017;29;20239;-43
2023/03/15 06:18:00;;;;;;;3.73;1.77;;;;;;;;;;4922564;28;20282;-42
2023/03/15 06:20:30;;;;;;;3.03;1.40;;;;;;;;;;4932891;29;20231;-42
2023/03/15 06:23:02;;;;;;;3.37;1.63;;;;;;;;;;4929425;29;20216;-42
2023/03/15 06:25:38;;;;;;;8.83;2.50;;;;;;;;;;4916673;29;20223;-44
2023/03/15 06:28:05;;;;;;;8.17;2.63;;;;;;;;;;4916513;29;20296;-46
2023/03/15 06:30:33;;;;;;;4.30;2.00;;;;;;;;;;4930234;29;20222;-44
2023/03/15 06:33:01;;;;;;;11.00;3.43;;;;;;;;;;4947490;28;20657;-43
2023/03/15 06:35:30;;;;;;;8.37;3.10;;;;;;;;;;4994239;28;20217;-43
2023/03/15 06:37:57;;;;;;;5.40;2.30;;;;;;;;;;4993475;28;20237;-44
2023/03/15 06:40:24;;;;;;;5.20;2.10;;;;;;;;;;4994758;28;20237;-44
2023/03/15 06:42:51;;;;;;;10.07;2.50;;;;;;;;;;4996619;28;20210;-43
2023/03/15 06:45:20;;;;;;;9.07;2.60;;;;;;;;;;4998243;28;20233;-44
2023/03/15 06:47:48;;;;;;;4.60;2.17;;;;;;;;;;4998080;28;20209;-44
2023/03/15 06:50:16;;;;;;;7.23;2.20;;;;;;;;;;4998126;28;20206;-45
2023/03/15 06:52:44;;;;;;;7.20;2.40;;;;;;;;;;4997874;28;20233;-44
2023/03/15 06:55:16;;;;;;;8.07;2.50;;;;;;;;;;5030740;28;20265;-44
2023/03/15 06:57:43;;;;;;;8.47;2.50;;;;;;;;;;4998363;28;20217;-44
2023/03/15 07:00:12;;;;;;;7.27;2.53;;;;;;;;;;4998921;28;20222;-43
2023/03/15 07:02:39;;;;;;;9.20;2.50;;;;;;;;;;4998789;28;20194;-43
2023/03/15 07:05:07;;;;;;;9.97;2.37;;;;;;;;;;4998921;28;20234;-43
2023/03/15 07:07:34;;;;;;;9.73;2.97;;;;;;;;;;4998630;28;20210;-43
2023/03/15 07:10:03;;;;;;;7.97;2.83;;;;;;;;;;4998574;28;20214;-46
2023/03/15 07:12:30;;;;;;;5.63;2.57;;;;;;;;;;4998506;28;20216;-43
2023/03/15 07:14:57;;;;;;;8.10;3.23;;;;;;;;;;4998324;28;20280;-44
2023/03/15 07:17:24;;;;;;;13.77;3.57;;;;;;;;;;4998413;28;20629;-44
2023/03/15 07:19:52;;;;;;;8.73;3.40;;;;;;;;;;4998118;28;20767;-44
2023/03/15 07:22:23;;;;;;;8.70;3.30;;;;;;;;;;4998155;28;20623;-43
2023/03/15 07:24:50;;;;;;;9.97;4.07;;;;;;;;;;4998385;28;20210;-44
2023/03/15 07:27:17;;;;;;;10.47;3.90;;;;;;;;;;4998222;28;20253;-43
2023/03/15 07:29:45;;;;;;;9.23;4.07;;;;;;;;;;4998254;28;20268;-43
2023/03/15 07:32:13;;;;;;;8.63;3.40;;;;;;;;;;4998170;28;20209;-43
2023/03/15 07:34:40;;;;;;;9.67;4.30;;;;;;;;;;4998140;28;20206;-43
2023/03/15 07:37:07;;;;;;;10.90;3.47;;;;;;;;;;4998661;28;20202;-43
2023/03/15 07:39:35;;;;;;;11.93;3.70;;;;;;;;;;4998024;28;20214;-44
2023/03/15 07:42:02;;;;;;;8.27;3.57;;;;;;;;;;4998092;28;20198;-45
2023/03/15 07:44:32;;;;;;;10.47;3.47;;;;;;;;;;4997131;28;20276;-45
2023/03/15 07:46:59;;;;;;;12.90;3.83;;;;;;;;;;4997774;28;20225;-43
2023/03/15 07:49:26;;;;;;;10.87;4.00;;;;;;;;;;4997874;28;20206;-45
2023/03/15 07:51:54;;;;;;;6.77;3.50;;;;;;;;;;4997407;28;20206;-44
2023/03/15 07:54:22;;;;;;;10.43;3.73;;;;;;;;;;4997750;28;20213;-43
2023/03/15 07:56:49;;;;;;;12.93;4.10;;;;;;;;;;4997762;28;20349;-43
2023/03/15 07:59:16;;;;;;;7.50;3.30;;;;;;;;;;4997424;28;20224;-44
2023/03/15 08:01:43;;;;;;;11.20;3.97;;;;;;;;;;4997720;28;20276;-43
2023/03/15 08:04:11;;;;;;;6.47;3.33;;;;;;;;;;4997770;28;20238;-43
2023/03/15 08:06:38;;;;;;;10.23;3.90;;;;;;;;;;4997528;28;20234;-43
2023/03/15 08:09:05;;;;;;;11.50;3.87;;;;;;;;;;4997504;28;20221;-43
2023/03/15 08:11:33;;;;;;;8.23;3.63;;;;;;;;;;4997493;28;20634;-43
2023/03/15 08:14:05;;;;;;;8.20;3.40;;;;;;;;;;4997542;28;20190;-44
2023/03/15 08:16:32;;;;;;;10.17;4.17;;;;;;;;;;4997605;28;20241;-43
2023/03/15 08:18:59;;;;;;;13.03;4.00;;;;;;;;;;4997432;28;20550;-43
2023/03/15 08:21:26;;;;;;;7.83;3.10;;;;;;;;;;4996986;28;20725;-43
2023/03/15 08:23:53;;;;;;;5.50;3.70;;;;;;;;;;4996199;28;20653;-44
2023/03/15 08:26:21;;;;;;;8.87;3.27;;;;;;;;;;4996759;28;20293;-43
2023/03/15 08:28:48;;;;;;;7.57;3.57;;;;;;;;;;4997145;28;20284;-43
2023/03/15 08:31:15;;;;;;;10.90;4.30;;;;;;;;;;4997025;28;20212;-44
2023/03/15 08:33:43;;;;;;;7.73;3.90;;;;;;;;;;4997412;28;20206;-43
2023/03/15 08:36:10;;;;;;;12.50;3.53;;;;;;;;;;4997012;28;20201;-44
2023/03/15 08:38:37;;;;;;;15.33;4.00;;;;;;;;;;4996798;28;20539;-43
2023/03/15 08:41:04;;;;;;;11.50;3.80;;;;;;;;;;4995998;28;20206;-43
2023/03/15 08:43:32;;;;;;;14.77;4.00;;;;;;;;;;4996816;28;20542;-43
2023/03/15 08:45:59;;;;;;;12.00;3.73;;;;;;;;;;4996468;28;20221;-44
2023/03/15 08:48:29;;;;;;;11.77;4.30;;;;;;;;;;4996732;28;20210;-43
2023/03/15 08:51:01;;;;;;;10.67;4.53;;;;;;;;;;4996925;28;20210;-43
2023/03/15 08:53:30;;;;;;;11.63;4.23;;;;;;;;;;4996537;28;20532;-43
2023/03/15 08:55:57;;;;;;;8.53;3.27;;;;;;;;;;4996947;28;20210;-43
2023/03/15 08:58:24;;;;;;;8.67;4.00;;;;;;;;;;4996630;28;20221;-43
2023/03/15 09:00:51;;;;;;;10.57;4.13;;;;;;;;;;4996405;28;20637;-44
2023/03/15 09:03:19;;;;;;;7.80;3.40;;;;;;;;;;4995765;28;20233;-44
2023/03/15 09:05:46;;;;;;;11.47;3.83;;;;;;;;;;4996290;28;20250;-46
2023/03/15 09:08:16;;;;;;;11.23;4.10;;;;;;;;;;4996383;28;20222;-45
2023/03/15 09:10:43;;;;;;;13.30;4.23;;;;;;;;;;4996606;28;20210;-43
2023/03/15 09:13:11;;;;;;;11.50;3.83;;;;;;;;;;4996470;28;20202;-43
2023/03/15 09:15:38;;;;;;;11.30;3.90;;;;;;;;;;4996271;28;20551;-44
2023/03/15 09:18:05;;;;;;;8.60;3.97;;;;;;;;;;4996100;28;20210;-45
2023/03/15 09:20:32;;;;;;;12.90;3.83;;;;;;;;;;4995933;28;20220;-43
2023/03/15 09:22:59;;;;;;;10.30;3.83;;;;;;;;;;4996372;28;20233;-43
2023/03/15 09:25:26;;;;;;;8.73;3.97;;;;;;;;;;4996302;28;20210;-45
2023/03/15 09:27:54;;;;;;;13.07;3.70;;;;;;;;;;4995764;28;20561;-43
2023/03/15 09:30:21;;;;;;;12.07;3.87;;;;;;;;;;4996053;28;20645;-43
2023/03/15 09:32:50;;;;;;;8.80;3.70;;;;;;;;;;4996132;28;20214;-43
2023/03/15 09:35:19;;;;;;;10.00;4.50;;;;;;;;;;4996189;28;20213;-43
2023/03/15 09:37:47;;;;;;;11.80;4.10;;;;;;;;;;4995615;28;20588;-44
2023/03/15 09:40:37;;;;;;;9.63;3.80;;;;;;;;;;4996018;28;20216;-44
2023/03/15 09:43:05;;;;;;;12.30;4.17;;;;;;;;;;4995762;28;20629;-43
2023/03/15 09:46:09;;;;;;;12.87;4.07;;;;;;;;;;4995482;28;20206;-45
2023/03/15 09:48:51;;;;;;;11.90;3.70;;;;;;;;;;4995724;28;20279;-45
2023/03/15 09:51:24;;;;;;;12.20;3.77;;;;;;;;;;4995054;28;20205;-44
2023/03/15 09:53:55;;;;;;;15.87;4.30;;;;;;;;;;4994618;28;20202;-45
2023/03/15 09:56:51;;;;;;;12.13;4.03;;;;;;;;;;4994782;28;20216;-45
2023/03/15 09:59:21;;;;;;;12.63;4.30;;;;;;;;;;4989300;28;20206;-43
2023/03/15 10:01:50;;;;;;;12.30;4.20;;;;;;;;;;4994871;28;20206;-43
2023/03/15 10:04:27;;;;;;;12.10;3.07;;;;;;;;;;4994478;28;20249;-45
2023/03/15 10:06:56;;;;;;;8.73;3.27;;;;;;;;;;4995567;28;20228;-44
2023/03/15 10:09:28;;;;;;;10.87;3.73;;;;;;;;;;4995206;28;20212;-43
2023/03/15 10:12:07;;;;;;;9.87;3.73;;;;;;;;;;4995330;28;20221;-43
2023/03/15 10:14:51;;;;;;;9.73;3.67;;;;;;;;;;4995544;28;20213;-44
2023/03/15 10:17:30;;;;;;;8.67;3.53;;;;;;;;;;4998417;28;20198;-44
2023/03/15 10:20:00;;;;;;;11.40;3.87;;;;;;;;;;4999754;28;20627;-44
2023/03/15 10:22:54;;;;;;;9.90;3.73;;;;;;;;;;4982653;28;20233;-44
2023/03/15 10:25:24;;;;;;;9.03;3.47;;;;;;;;;;4998581;28;20641;-45
2023/03/15 10:28:02;;;;;;;13.93;4.00;;;;;;;;;;4999201;28;20611;-44
2023/03/15 10:30:32;;;;;;;9.93;3.83;;;;;;;;;;4998289;28;20209;-44
2023/03/15 10:33:04;;;;;;;13.70;3.83;;;;;;;;;;4999123;28;20736;-43
2023/03/15 10:35:32;;;;;;;8.33;4.20;;;;;;;;;;4999205;28;20248;-44
2023/03/15 10:38:01;;;;;;;8.30;3.73;;;;;;;;;;4999214;28;20233;-44
2023/03/15 10:40:42;;;;;;;11.23;4.43;;;;;;;;;;4999095;28;20276;-44
2023/03/15 10:43:15;;;;;;;11.13;3.00;;;;;;;;;;4999140;28;20605;-45
2023/03/15 10:45:46;;;;;;;10.00;3.93;;;;;;;;;;4998997;28;20289;-44
2023/03/15 10:48:13;;;;;;;10.67;3.70;;;;;;;;;;4999240;28;20214;-44
2023/03/15 10:50:40;;;;;;;9.53;3.57;;;;;;;;;;4998621;28;20634;-44
2023/03/15 10:53:10;;;;;;;10.23;4.03;;;;;;;;;;4998708;28;20210;-45
2023/03/15 10:55:44;;;;;;;10.83;3.37;;;;;;;;;;4998922;28;20220;-44
2023/03/15 10:58:26;;;;;;;10.20;3.70;;;;;;;;;;4998612;28;20233;-43
2023/03/15 11:01:08;;;;;;;9.83;3.57;;;;;;;;;;4998499;28;20535;-47
2023/03/15 11:03:36;;;;;;;13.50;4.30;;;;;;;;;;4999277;28;20242;-43
2023/03/15 11:06:23;;;;;;;11.57;4.00;;;;;;;;;;4998618;28;20524;-45
2023/03/15 11:08:50;;;;;;;8.33;3.37;;;;;;;;;;4997593;28;20206;-44
2023/03/15 11:11:17;;;;;;;7.73;3.53;;;;;;;;;;4998293;28;20206;-43
2023/03/15 11:13:58;;;;;;;10.37;4.40;;;;;;;;;;4998666;28;20214;-44
2023/03/15 11:16:25;;;;;;;10.10;3.70;;;;;;;;;;4998874;28;20201;-44
2023/03/15 11:19:02;;;;;;;11.70;3.60;;;;;;;;;;4998202;28;20653;-44
2023/03/15 11:21:35;;;;;;;10.13;3.30;;;;;;;;;;4997594;28;20217;-43
2023/03/15 11:24:04;;;;;;;8.27;3.27;;;;;;;;;;4998418;28;20195;-44
2023/03/15 11:26:34;;;;;;;11.57;3.20;;;;;;;;;;4989495;28;20256;-44
2023/03/15 11:29:06;;;;;;;9.77;3.10;;;;;;;;;;4996281;28;20225;-44
2023/03/15 11:31:34;;;;;;;8.20;3.57;;;;;;;;;;4996103;28;20241;-43
2023/03/15 11:34:07;;;;;;;13.07;3.50;;;;;;;;;;4996067;28;20242;-44
2023/03/15 11:36:39;;;;;;;11.60;4.07;;;;;;;;;;4997168;28;20573;-44
2023/03/15 11:39:11;;;;;;;9.60;3.90;;;;;;;;;;4997008;28;20588;-43
2023/03/15 11:41:47;;;;;;;10.50;4.03;;;;;;;;;;4995819;28;20233;-44
2023/03/15 11:44:22;;;;;;;8.37;3.60;;;;;;;;;;4997132;28;20229;-44
2023/03/15 11:47:00;;;;;;;9.83;3.87;;;;;;;;;;4996028;28;20241;-44
2023/03/15 11:49:39;;;;;;;14.57;4.03;;;;;;;;;;4996513;28;20549;-43
2023/03/15 11:52:07;;;;;;;10.03;3.70;;;;;;;;;;4995754;28;20225;-44
2023/03/15 11:54:34;;;;;;;11.70;3.87;;;;;;;;;;4995911;28;20226;-44
2023/03/15 11:57:06;;;;;;;10.63;3.50;;;;;;;;;;4995605;28;20230;-44
2023/03/15 11:59:38;;;;;;;7.87;3.50;;;;;;;;;;4996527;28;20250;-44
2023/03/15 12:02:09;;;;;;;12.97;3.27;;;;;;;;;;4995584;28;20252;-45
2023/03/15 12:04:42;;;;;;;6.73;3.20;;;;;;;;;;4996807;28;20238;-43
2023/03/15 12:07:34;;;;;;;11.17;3.40;;;;;;;;;;4996496;28;20234;-44
2023/03/15 12:10:01;;;;;;;11.00;3.53;;;;;;;;;;4996189;28;20226;-43
2023/03/15 12:12:29;;;;;;;11.70;3.20;;;;;;;;;;4996889;28;20245;-44
2023/03/15 12:15:36;;;;;;;11.87;3.40;;;;;;;;;;4996058;28;20226;-46
2023/03/15 12:18:07;;;;;;;11.60;3.70;;;;;;;;;;4995376;28;20513;-45
2023/03/15 12:20:39;;;;;;;7.03;3.63;;;;;;;;;;4996438;28;20621;-44
2023/03/15 12:23:16;;;;;;;8.33;3.57;;;;;;;;;;4996224;28;20217;-45
2023/03/15 12:25:50;;;;;;;9.57;4.00;;;;;;;;;;5014647;28;20258;-44
2023/03/15 12:28:27;;;;;;;8.93;3.37;;;;;;;;;;5000549;28;20291;-44
2023/03/15 12:31:00;;;;;;;9.60;3.70;;;;;;;;;;4987799;28;20649;-43
2023/03/15 12:33:30;;;;;;;10.77;3.40;;;;;;;;;;4993785;28;20253;-42
2023/03/15 12:36:07;;;;;;;7.83;3.30;;;;;;;;;;4995044;28;20329;-43
2023/03/15 12:38:37;;;;;;;8.60;3.40;;;;;;;;;;4994602;28;20218;-44
2023/03/15 12:41:08;;;;;;;11.20;3.63;;;;;;;;;;4987157;28;20236;-43
2023/03/15 12:43:38;;;;;;;10.33;3.20;;;;;;;;;;4995921;28;20552;-43
2023/03/15 12:46:05;;;;;;;7.47;2.70;;;;;;;;;;4994928;28;20226;-43
2023/03/15 12:48:33;;;;;;;7.67;3.13;;;;;;;;;;4994906;28;20665;-43
2023/03/15 12:51:02;;;;;;;7.73;2.67;;;;;;;;;;4995063;28;20228;-44
2023/03/15 12:53:37;;;;;;;8.87;3.00;;;;;;;;;;4995873;28;20234;-47
2023/03/15 12:56:16;;;;;;;9.93;3.50;;;;;;;;;;4995457;28;20250;-49
2023/03/15 12:58:45;;;;;;;7.17;2.77;;;;;;;;;;4995348;28;20222;-45
2023/03/15 13:01:15;;;;;;;7.63;2.80;;;;;;;;;;4993690;28;20226;-51
2023/03/15 13:03:43;;;;;;;10.13;3.03;;;;;;;;;;4995986;28;20250;-46
2023/03/15 13:06:27;;;;;;;8.13;3.00;;;;;;;;;;4994877;28;20244;-47
2023/03/15 13:09:08;;;;;;;7.00;3.17;;;;;;;;;;4995715;28;20252;-44
2023/03/15 13:11:41;;;;;;;6.80;3.00;;;;;;;;;;4995954;28;20245;-45
2023/03/15 13:14:27;;;;;;;8.47;3.20;;;;;;;;;;4995507;28;20245;-45
2023/03/15 13:17:20;;;;;;;9.40;3.30;;;;;;;;;;4994377;28;20240;-44
2023/03/15 13:20:08;;;;;;;9.97;3.13;;;;;;;;;;4979068;28;20222;-44
2023/03/15 13:23:06;;;;;;;10.50;3.47;;;;;;;;;;4995354;28;20668;-46
2023/03/15 13:25:52;;;;;;;11.83;3.63;;;;;;;;;;4995159;28;20234;-44
2023/03/15 13:28:23;;;;;;;12.57;3.40;;;;;;;;;;4994996;28;20667;-46
2023/03/15 13:30:53;;;;;;;7.67;3.03;;;;;;;;;;4992561;28;20603;-46
2023/03/15 13:33:26;;;;;;;10.17;2.97;;;;;;;;;;5004935;28;20240;-45
2023/03/15 13:35:59;;;;;;;9.00;3.60;;;;;;;;;;5012461;28;20229;-44
2023/03/15 13:38:28;;;;;;;8.10;3.00;;;;;;;;;;5013659;28;20299;-45
2023/03/15 13:40:58;;;;;;;7.80;3.10;;;;;;;;;;5012504;28;20237;-46
2023/03/15 13:43:36;;;;;;;7.97;2.87;;;;;;;;;;5012493;28;20239;-45
2023/03/15 13:46:04;;;;;;;9.73;3.00;;;;;;;;;;5008571;28;20233;-44
2023/03/15 13:48:36;;;;;;;14.47;3.90;;;;;;;;;;4993201;28;20242;-45
2023/03/15 13:51:08;;;;;;;8.40;3.30;;;;;;;;;;5002058;28;20675;-43
2023/03/15 13:53:35;;;;;;;7.57;3.17;;;;;;;;;;4981904;28;20561;-46
2023/03/15 13:56:24;;;;;;;7.17;3.13;;;;;;;;;;4983231;28;20261;-48
2023/03/15 13:58:52;;;;;;;14.23;3.20;;;;;;;;;;4980976;28;20222;-46
2023/03/15 14:01:22;;;;;;;4.67;2.50;;;;;;;;;;4983261;28;20222;-44
2023/03/15 14:03:56;;;;;;;8.53;3.20;;;;;;;;;;4987354;28;20246;-44
2023/03/15 14:06:24;;;;;;;11.07;3.90;;;;;;;;;;5013959;28;20723;-43
2023/03/15 14:08:54;;;;;;;11.00;4.30;;;;;;;;;;4984527;28;20230;-43
2023/03/15 14:11:24;;;;;;;14.23;3.63;;;;;;;;;;4984074;28;20215;-43
2023/03/15 14:13:59;;;;;;;12.00;3.30;;;;;;;;;;4978908;28;20696;-44
2023/03/15 14:16:38;;;;;;;8.77;2.83;;;;;;;;;;4982971;28;20250;-46
2023/03/15 14:19:30;;;;;;;7.53;3.03;;;;;;;;;;4981811;28;20238;-47
2023/03/15 14:22:00;;;;;;;8.93;3.20;;;;;;;;;;4982438;28;20214;-43
2023/03/15 14:24:46;;;;;;;7.90;3.27;;;;;;;;;;4979397;28;20292;-44
2023/03/15 14:27:15;;;;;;;6.50;3.40;;;;;;;;;;4978899;28;20234;-42
2023/03/15 14:29:46;;;;;;;10.10;4.43;;;;;;;;;;4973553;28;20222;-44
2023/03/15 14:32:35;;;;;;;10.67;3.77;;;;;;;;;;4975344;28;20223;-44
2023/03/15 14:35:18;;;;;;;10.70;3.93;;;;;;;;;;4982157;28;20221;-45
2023/03/15 14:37:45;;;;;;;8.90;3.83;;;;;;;;;;4996465;28;20717;-45
2023/03/15 14:40:27;;;;;;;10.30;3.73;;;;;;;;;;4982331;28;20230;-45
2023/03/15 14:42:54;;;;;;;11.63;3.43;;;;;;;;;;4971735;28;20242;-45
2023/03/15 14:45:22;;;;;;;10.63;3.87;;;;;;;;;;4986345;28;20558;-47
2023/03/15 14:47:51;;;;;;;9.77;3.60;;;;;;;;;;4987179;28;20242;-45
2023/03/15 14:50:26;;;;;;;15.53;3.83;;;;;;;;;;5016651;28;20223;-48
2023/03/15 14:52:56;;;;;;;11.40;3.87;;;;;;;;;;4998846;28;20230;-45
2023/03/15 14:55:28;;;;;;;11.90;3.93;;;;;;;;;;4979078;28;20226;-44
2023/03/15 14:57:56;;;;;;;9.00;3.13;;;;;;;;;;4991026;28;20280;-46
2023/03/15 15:00:23;;;;;;;14.03;4.00;;;;;;;;;;4991634;28;20547;-44
2023/03/15 15:02:52;;;;;;;9.23;3.70;;;;;;;;;;4989349;28;20219;-44
2023/03/15 15:05:28;;;;;;;8.47;3.67;;;;;;;;;;4982636;28;20581;-43
2023/03/15 15:08:11;;;;;;;12.67;4.30;;;;;;;;;;4985812;28;20234;-43